sensor_id;sensor_type;location;lat;lon;timestamp;P1;durP1;ratioP1;P2;durP2;ratioP2
48963;SDS011;34776;48.180;16.420;2023-05-07T00:00:50;3.75;;;3.42;;
48963;SDS011;34776;48.180;16.420;2023-05-07T00:03:16;3.63;;;3.33;;
48963;SDS011;34776;48.180;16.420;2023-05-07T00:05:41;5.30;;;3.70;;
48963;SDS011;34776;48.180;16.420;2023-05-07T00:08:07;3.67;;;3.38;;
48963;SDS011;34776;48.180;16.420;2023-05-07T00:10:33;4.40;;;2.90;;
48963;SDS011;34776;48.180;16.420;2023-05-07T00:12:58;3.33;;;3.03;;
48963;SDS011;34776;48.180;16.420;2023-05-07T00:15:23;3.80;;;3.40;;
48963;SDS011;34776;48.180;16.420;2023-05-07T00:17:49;3.13;;;2.80;;
48963;SDS011;34776;48.180;16.420;2023-05-07T00:20:14;3.42;;;2.88;;
48963;SDS011;34776;48.180;16.420;2023-05-07T00:22:40;3.03;;;2.72;;
48963;SDS011;34776;48.180;16.420;2023-05-07T00:25:06;3.40;;;3.08;;
48963;SDS011;34776;48.180;16.420;2023-05-07T00:27:31;2.80;;;2.38;;
48963;SDS011;34776;48.180;16.420;2023-05-07T00:29:57;2.67;;;2.47;;
48963;SDS011;34776;48.180;16.420;2023-05-07T00:32:22;3.15;;;2.47;;
48963;SDS011;34776;48.180;16.420;2023-05-07T00:34:48;2.97;;;2.65;;
48963;SDS011;34776;48.180;16.420;2023-05-07T00:37:13;4.55;;;2.60;;
48963;SDS011;34776;48.180;16.420;2023-05-07T00:39:38;2.88;;;2.58;;
48963;SDS011;34776;48.180;16.420;2023-05-07T00:42:04;5.70;;;2.53;;
48963;SDS011;34776;48.180;16.420;2023-05-07T00:44:29;2.95;;;2.50;;
48963;SDS011;34776;48.180;16.420;2023-05-07T00:46:55;3.05;;;2.42;;
48963;SDS011;34776;48.180;16.420;2023-05-07T00:49:22;3.10;;;2.65;;
48963;SDS011;34776;48.180;16.420;2023-05-07T00:51:56;2.90;;;2.45;;
48963;SDS011;34776;48.180;16.420;2023-05-07T00:54:21;3.97;;;2.58;;
48963;SDS011;34776;48.180;16.420;2023-05-07T00:56:46;2.95;;;2.50;;
48963;SDS011;34776;48.180;16.420;2023-05-07T00:59:12;2.70;;;2.50;;
48963;SDS011;34776;48.180;16.420;2023-05-07T01:01:38;3.08;;;2.42;;
48963;SDS011;34776;48.180;16.420;2023-05-07T01:04:03;2.78;;;2.50;;
48963;SDS011;34776;48.180;16.420;2023-05-07T01:06:29;2.75;;;2.55;;
48963;SDS011;34776;48.180;16.420;2023-05-07T01:08:56;3.72;;;2.47;;
48963;SDS011;34776;48.180;16.420;2023-05-07T01:11:22;5.05;;;3.20;;
48963;SDS011;34776;48.180;16.420;2023-05-07T01:13:48;4.10;;;2.67;;
48963;SDS011;34776;48.180;16.420;2023-05-07T01:16:15;2.90;;;2.60;;
48963;SDS011;34776;48.180;16.420;2023-05-07T01:18:41;4.00;;;2.83;;
48963;SDS011;34776;48.180;16.420;2023-05-07T01:21:06;4.20;;;3.00;;
48963;SDS011;34776;48.180;16.420;2023-05-07T01:23:35;3.72;;;3.03;;
48963;SDS011;34776;48.180;16.420;2023-05-07T01:26:01;3.70;;;2.80;;
48963;SDS011;34776;48.180;16.420;2023-05-07T01:28:27;4.75;;;3.00;;
48963;SDS011;34776;48.180;16.420;2023-05-07T01:30:53;3.20;;;2.90;;
48963;SDS011;34776;48.180;16.420;2023-05-07T01:33:22;3.25;;;2.95;;
48963;SDS011;34776;48.180;16.420;2023-05-07T01:35:52;5.50;;;2.85;;
48963;SDS011;34776;48.180;16.420;2023-05-07T01:38:18;3.40;;;2.97;;
48963;SDS011;34776;48.180;16.420;2023-05-07T01:40:47;3.22;;;2.90;;
48963;SDS011;34776;48.180;16.420;2023-05-07T01:43:12;3.42;;;2.88;;
48963;SDS011;34776;48.180;16.420;2023-05-07T01:45:37;5.40;;;3.10;;
48963;SDS011;34776;48.180;16.420;2023-05-07T01:48:04;3.67;;;3.17;;
48963;SDS011;34776;48.180;16.420;2023-05-07T01:50:31;3.65;;;3.35;;
48963;SDS011;34776;48.180;16.420;2023-05-07T01:52:58;3.65;;;3.35;;
48963;SDS011;34776;48.180;16.420;2023-05-07T01:55:24;5.50;;;3.13;;
48963;SDS011;34776;48.180;16.420;2023-05-07T01:57:49;3.47;;;3.17;;
48963;SDS011;34776;48.180;16.420;2023-05-07T02:00:15;3.38;;;3.08;;
48963;SDS011;34776;48.180;16.420;2023-05-07T02:02:40;3.47;;;3.17;;
48963;SDS011;34776;48.180;16.420;2023-05-07T02:05:06;5.53;;;3.20;;
48963;SDS011;34776;48.180;16.420;2023-05-07T02:07:32;3.47;;;3.13;;
48963;SDS011;34776;48.180;16.420;2023-05-07T02:09:57;4.28;;;3.70;;
48963;SDS011;34776;48.180;16.420;2023-05-07T02:12:22;4.45;;;3.78;;
48963;SDS011;34776;48.180;16.420;2023-05-07T02:14:48;3.97;;;3.50;;
48963;SDS011;34776;48.180;16.420;2023-05-07T02:17:13;4.25;;;3.65;;
48963;SDS011;34776;48.180;16.420;2023-05-07T02:19:38;4.00;;;3.00;;
48963;SDS011;34776;48.180;16.420;2023-05-07T02:22:04;4.10;;;3.13;;
48963;SDS011;34776;48.180;16.420;2023-05-07T02:24:29;3.63;;;3.00;;
48963;SDS011;34776;48.180;16.420;2023-05-07T02:26:55;4.57;;;3.20;;
48963;SDS011;34776;48.180;16.420;2023-05-07T02:29:20;4.22;;;3.25;;
48963;SDS011;34776;48.180;16.420;2023-05-07T02:31:45;4.75;;;3.30;;
48963;SDS011;34776;48.180;16.420;2023-05-07T02:34:12;4.07;;;3.40;;
48963;SDS011;34776;48.180;16.420;2023-05-07T02:36:37;3.40;;;3.10;;
48963;SDS011;34776;48.180;16.420;2023-05-07T02:39:03;3.83;;;3.40;;
48963;SDS011;34776;48.180;16.420;2023-05-07T02:41:28;3.25;;;2.90;;
48963;SDS011;34776;48.180;16.420;2023-05-07T02:43:54;4.93;;;3.13;;
48963;SDS011;34776;48.180;16.420;2023-05-07T02:46:19;3.13;;;2.92;;
48963;SDS011;34776;48.180;16.420;2023-05-07T02:48:44;3.20;;;2.90;;
48963;SDS011;34776;48.180;16.420;2023-05-07T02:51:10;3.42;;;3.10;;
48963;SDS011;34776;48.180;16.420;2023-05-07T02:53:35;3.22;;;2.92;;
48963;SDS011;34776;48.180;16.420;2023-05-07T02:56:01;3.67;;;3.33;;
48963;SDS011;34776;48.180;16.420;2023-05-07T02:58:26;5.32;;;3.70;;
48963;SDS011;34776;48.180;16.420;2023-05-07T03:00:52;4.47;;;4.07;;
48963;SDS011;34776;48.180;16.420;2023-05-07T03:03:19;5.10;;;3.83;;
48963;SDS011;34776;48.180;16.420;2023-05-07T03:05:45;4.65;;;4.05;;
48963;SDS011;34776;48.180;16.420;2023-05-07T03:08:10;4.05;;;3.65;;
48963;SDS011;34776;48.180;16.420;2023-05-07T03:10:36;4.10;;;3.80;;
48963;SDS011;34776;48.180;16.420;2023-05-07T03:13:02;4.40;;;4.00;;
48963;SDS011;34776;48.180;16.420;2023-05-07T03:15:27;4.80;;;4.00;;
48963;SDS011;34776;48.180;16.420;2023-05-07T03:17:53;5.78;;;5.10;;
48963;SDS011;34776;48.180;16.420;2023-05-07T03:20:18;5.78;;;5.20;;
48963;SDS011;34776;48.180;16.420;2023-05-07T03:22:43;5.70;;;5.10;;
48963;SDS011;34776;48.180;16.420;2023-05-07T03:25:09;5.88;;;5.28;;
48963;SDS011;34776;48.180;16.420;2023-05-07T03:27:35;5.95;;;5.38;;
48963;SDS011;34776;48.180;16.420;2023-05-07T03:30:00;5.22;;;4.72;;
48963;SDS011;34776;48.180;16.420;2023-05-07T03:32:26;6.75;;;5.25;;
48963;SDS011;34776;48.180;16.420;2023-05-07T03:34:51;5.50;;;4.97;;
48963;SDS011;34776;48.180;16.420;2023-05-07T03:37:16;6.95;;;5.13;;
48963;SDS011;34776;48.180;16.420;2023-05-07T03:39:42;6.05;;;5.30;;
48963;SDS011;34776;48.180;16.420;2023-05-07T03:42:07;7.25;;;5.78;;
48963;SDS011;34776;48.180;16.420;2023-05-07T03:44:33;8.27;;;5.63;;
48963;SDS011;34776;48.180;16.420;2023-05-07T03:46:58;6.40;;;5.57;;
48963;SDS011;34776;48.180;16.420;2023-05-07T03:49:23;7.80;;;6.78;;
48963;SDS011;34776;48.180;16.420;2023-05-07T03:51:48;6.53;;;5.93;;
48963;SDS011;34776;48.180;16.420;2023-05-07T03:54:14;7.15;;;6.25;;
48963;SDS011;34776;48.180;16.420;2023-05-07T03:56:39;9.25;;;6.40;;
48963;SDS011;34776;48.180;16.420;2023-05-07T03:59:05;7.68;;;6.57;;
48963;SDS011;34776;48.180;16.420;2023-05-07T04:01:30;7.90;;;7.10;;
48963;SDS011;34776;48.180;16.420;2023-05-07T04:03:56;8.75;;;7.07;;
48963;SDS011;34776;48.180;16.420;2023-05-07T04:06:21;6.60;;;5.95;;
48963;SDS011;34776;48.180;16.420;2023-05-07T04:08:47;7.13;;;6.43;;
48963;SDS011;34776;48.180;16.420;2023-05-07T04:11:12;8.13;;;6.55;;
48963;SDS011;34776;48.180;16.420;2023-05-07T04:13:37;7.80;;;7.00;;
48963;SDS011;34776;48.180;16.420;2023-05-07T04:16:03;9.38;;;7.43;;
48963;SDS011;34776;48.180;16.420;2023-05-07T04:18:31;8.95;;;8.05;;
48963;SDS011;34776;48.180;16.420;2023-05-07T04:20:57;9.18;;;8.13;;
48963;SDS011;34776;48.180;16.420;2023-05-07T04:23:23;8.20;;;7.43;;
48963;SDS011;34776;48.180;16.420;2023-05-07T04:25:48;8.77;;;7.97;;
48963;SDS011;34776;48.180;16.420;2023-05-07T04:28:13;9.30;;;8.23;;
48963;SDS011;34776;48.180;16.420;2023-05-07T04:30:39;9.98;;;8.93;;
48963;SDS011;34776;48.180;16.420;2023-05-07T04:33:06;10.77;;;8.43;;
48963;SDS011;34776;48.180;16.420;2023-05-07T04:35:33;9.20;;;8.30;;
48963;SDS011;34776;48.180;16.420;2023-05-07T04:37:58;9.77;;;8.73;;
48963;SDS011;34776;48.180;16.420;2023-05-07T04:40:23;10.32;;;8.63;;
48963;SDS011;34776;48.180;16.420;2023-05-07T04:42:49;11.20;;;9.40;;
48963;SDS011;34776;48.180;16.420;2023-05-07T04:45:15;10.43;;;9.27;;
48963;SDS011;34776;48.180;16.420;2023-05-07T04:47:40;13.48;;;10.13;;
48963;SDS011;34776;48.180;16.420;2023-05-07T04:50:06;12.63;;;11.27;;
48963;SDS011;34776;48.180;16.420;2023-05-07T04:52:32;13.82;;;11.68;;
48963;SDS011;34776;48.180;16.420;2023-05-07T04:55:01;14.52;;;13.02;;
48963;SDS011;34776;48.180;16.420;2023-05-07T04:57:26;13.52;;;12.13;;
48963;SDS011;34776;48.180;16.420;2023-05-07T04:59:52;14.63;;;13.10;;
48963;SDS011;34776;48.180;16.420;2023-05-07T05:02:18;16.08;;;14.20;;
48963;SDS011;34776;48.180;16.420;2023-05-07T05:04:43;25.83;;;22.60;;
48963;SDS011;34776;48.180;16.420;2023-05-07T05:07:08;18.13;;;16.33;;
48963;SDS011;34776;48.180;16.420;2023-05-07T05:09:34;16.30;;;14.60;;
48963;SDS011;34776;48.180;16.420;2023-05-07T05:11:59;17.88;;;15.38;;
48963;SDS011;34776;48.180;16.420;2023-05-07T05:14:25;17.13;;;14.98;;
48963;SDS011;34776;48.180;16.420;2023-05-07T05:16:50;21.75;;;18.33;;
48963;SDS011;34776;48.180;16.420;2023-05-07T05:19:15;19.48;;;17.58;;
48963;SDS011;34776;48.180;16.420;2023-05-07T05:21:41;17.25;;;15.57;;
48963;SDS011;34776;48.180;16.420;2023-05-07T05:24:06;17.67;;;15.88;;
48963;SDS011;34776;48.180;16.420;2023-05-07T05:26:32;22.17;;;19.02;;
48963;SDS011;34776;48.180;16.420;2023-05-07T05:28:57;20.70;;;18.52;;
48963;SDS011;34776;48.180;16.420;2023-05-07T05:31:22;18.35;;;16.45;;
48963;SDS011;34776;48.180;16.420;2023-05-07T05:33:48;18.55;;;16.65;;
48963;SDS011;34776;48.180;16.420;2023-05-07T05:36:13;19.75;;;17.75;;
48963;SDS011;34776;48.180;16.420;2023-05-07T05:38:39;19.48;;;17.58;;
48963;SDS011;34776;48.180;16.420;2023-05-07T05:41:04;17.92;;;15.80;;
48963;SDS011;34776;48.180;16.420;2023-05-07T05:43:30;19.85;;;17.77;;
48963;SDS011;34776;48.180;16.420;2023-05-07T05:45:56;20.13;;;18.02;;
48963;SDS011;34776;48.180;16.420;2023-05-07T05:48:21;18.38;;;16.45;;
48963;SDS011;34776;48.180;16.420;2023-05-07T05:50:47;18.42;;;16.58;;
48963;SDS011;34776;48.180;16.420;2023-05-07T05:53:13;17.67;;;15.95;;
48963;SDS011;34776;48.180;16.420;2023-05-07T05:55:38;20.27;;;18.17;;
48963;SDS011;34776;48.180;16.420;2023-05-07T05:58:04;19.00;;;17.05;;
48963;SDS011;34776;48.180;16.420;2023-05-07T06:00:29;18.27;;;16.48;;
48963;SDS011;34776;48.180;16.420;2023-05-07T06:02:55;18.85;;;16.65;;
48963;SDS011;34776;48.180;16.420;2023-05-07T06:05:20;16.50;;;14.80;;
48963;SDS011;34776;48.180;16.420;2023-05-07T06:07:46;18.92;;;17.02;;
48963;SDS011;34776;48.180;16.420;2023-05-07T06:10:11;18.00;;;16.08;;
48963;SDS011;34776;48.180;16.420;2023-05-07T06:12:36;18.27;;;16.48;;
48963;SDS011;34776;48.180;16.420;2023-05-07T06:15:02;18.27;;;16.45;;
48963;SDS011;34776;48.180;16.420;2023-05-07T06:17:28;18.08;;;15.38;;
48963;SDS011;34776;48.180;16.420;2023-05-07T06:19:53;18.05;;;16.02;;
48963;SDS011;34776;48.180;16.420;2023-05-07T06:22:18;19.20;;;17.30;;
48963;SDS011;34776;48.180;16.420;2023-05-07T06:24:44;16.30;;;14.70;;
48963;SDS011;34776;48.180;16.420;2023-05-07T06:27:09;19.60;;;15.50;;
48963;SDS011;34776;48.180;16.420;2023-05-07T06:29:35;17.42;;;15.05;;
48963;SDS011;34776;48.180;16.420;2023-05-07T06:32:07;17.63;;;15.45;;
48963;SDS011;34776;48.180;16.420;2023-05-07T06:34:33;19.52;;;16.17;;
48963;SDS011;34776;48.180;16.420;2023-05-07T06:36:58;15.82;;;14.20;;
48963;SDS011;34776;48.180;16.420;2023-05-07T06:39:23;15.75;;;13.80;;
48963;SDS011;34776;48.180;16.420;2023-05-07T06:41:49;16.27;;;14.52;;
48963;SDS011;34776;48.180;16.420;2023-05-07T06:44:14;14.02;;;12.43;;
48963;SDS011;34776;48.180;16.420;2023-05-07T06:46:40;15.55;;;13.95;;
48963;SDS011;34776;48.180;16.420;2023-05-07T06:49:06;14.25;;;12.38;;
48963;SDS011;34776;48.180;16.420;2023-05-07T06:51:31;17.75;;;15.93;;
48963;SDS011;34776;48.180;16.420;2023-05-07T06:53:57;13.82;;;12.43;;
48963;SDS011;34776;48.180;16.420;2023-05-07T06:56:22;13.82;;;12.43;;
48963;SDS011;34776;48.180;16.420;2023-05-07T06:58:48;14.07;;;12.20;;
48963;SDS011;34776;48.180;16.420;2023-05-07T07:01:13;14.40;;;12.95;;
48963;SDS011;34776;48.180;16.420;2023-05-07T07:03:38;13.35;;;11.95;;
48963;SDS011;34776;48.180;16.420;2023-05-07T07:06:04;14.80;;;13.32;;
48963;SDS011;34776;48.180;16.420;2023-05-07T07:08:30;14.23;;;12.23;;
48963;SDS011;34776;48.180;16.420;2023-05-07T07:10:55;15.35;;;13.77;;
48963;SDS011;34776;48.180;16.420;2023-05-07T07:13:21;15.13;;;13.63;;
48963;SDS011;34776;48.180;16.420;2023-05-07T07:15:46;13.50;;;12.20;;
48963;SDS011;34776;48.180;16.420;2023-05-07T07:18:11;16.15;;;14.38;;
48963;SDS011;34776;48.180;16.420;2023-05-07T07:20:37;21.02;;;15.10;;
48963;SDS011;34776;48.180;16.420;2023-05-07T07:23:02;18.40;;;16.23;;
48963;SDS011;34776;48.180;16.420;2023-05-07T07:25:27;16.73;;;14.43;;
48963;SDS011;34776;48.180;16.420;2023-05-07T07:27:53;19.10;;;17.13;;
48963;SDS011;34776;48.180;16.420;2023-05-07T07:30:18;15.38;;;13.70;;
48963;SDS011;34776;48.180;16.420;2023-05-07T07:32:43;16.25;;;14.60;;
48963;SDS011;34776;48.180;16.420;2023-05-07T07:35:09;15.35;;;13.75;;
48963;SDS011;34776;48.180;16.420;2023-05-07T07:37:34;17.08;;;13.40;;
48963;SDS011;34776;48.180;16.420;2023-05-07T07:40:00;15.70;;;14.18;;
48963;SDS011;34776;48.180;16.420;2023-05-07T07:42:25;17.00;;;15.25;;
48963;SDS011;34776;48.180;16.420;2023-05-07T07:44:51;17.13;;;14.77;;
48963;SDS011;34776;48.180;16.420;2023-05-07T07:47:17;13.43;;;12.02;;
48963;SDS011;34776;48.180;16.420;2023-05-07T07:49:45;14.98;;;13.32;;
48963;SDS011;34776;48.180;16.420;2023-05-07T07:52:11;16.20;;;14.45;;
48963;SDS011;34776;48.180;16.420;2023-05-07T07:54:36;18.08;;;14.40;;
48963;SDS011;34776;48.180;16.420;2023-05-07T07:57:01;15.35;;;12.77;;
48963;SDS011;34776;48.180;16.420;2023-05-07T07:59:27;15.38;;;13.77;;
48963;SDS011;34776;48.180;16.420;2023-05-07T08:01:52;15.23;;;13.75;;
48963;SDS011;34776;48.180;16.420;2023-05-07T08:04:20;17.02;;;12.65;;
48963;SDS011;34776;48.180;16.420;2023-05-07T08:06:46;14.80;;;13.25;;
48963;SDS011;34776;48.180;16.420;2023-05-07T08:09:11;17.55;;;14.43;;
48963;SDS011;34776;48.180;16.420;2023-05-07T08:11:36;17.13;;;15.43;;
48963;SDS011;34776;48.180;16.420;2023-05-07T08:14:02;16.00;;;14.32;;
48963;SDS011;34776;48.180;16.420;2023-05-07T08:16:28;14.98;;;13.32;;
48963;SDS011;34776;48.180;16.420;2023-05-07T08:18:53;18.17;;;15.95;;
48963;SDS011;34776;48.180;16.420;2023-05-07T08:21:19;13.23;;;11.88;;
48963;SDS011;34776;48.180;16.420;2023-05-07T08:23:45;14.40;;;13.00;;
48963;SDS011;34776;48.180;16.420;2023-05-07T08:26:10;13.60;;;12.15;;
48963;SDS011;34776;48.180;16.420;2023-05-07T08:28:36;13.48;;;12.02;;
48963;SDS011;34776;48.180;16.420;2023-05-07T08:31:01;14.73;;;13.23;;
48963;SDS011;34776;48.180;16.420;2023-05-07T08:33:26;15.68;;;13.10;;
48963;SDS011;34776;48.180;16.420;2023-05-07T08:35:52;13.93;;;12.35;;
48963;SDS011;34776;48.180;16.420;2023-05-07T08:38:18;14.30;;;12.68;;
48963;SDS011;34776;48.180;16.420;2023-05-07T08:40:44;13.10;;;11.73;;
48963;SDS011;34776;48.180;16.420;2023-05-07T08:43:11;17.45;;;15.65;;
48963;SDS011;34776;48.180;16.420;2023-05-07T08:45:37;13.90;;;12.02;;
48963;SDS011;34776;48.180;16.420;2023-05-07T08:48:05;14.02;;;12.52;;
48963;SDS011;34776;48.180;16.420;2023-05-07T08:50:37;13.45;;;12.05;;
48963;SDS011;34776;48.180;16.420;2023-05-07T08:53:03;13.63;;;11.18;;
48963;SDS011;34776;48.180;16.420;2023-05-07T08:55:29;10.25;;;9.25;;
48963;SDS011;34776;48.180;16.420;2023-05-07T08:57:55;12.45;;;11.13;;
48963;SDS011;34776;48.180;16.420;2023-05-07T09:00:20;12.07;;;10.55;;
48963;SDS011;34776;48.180;16.420;2023-05-07T09:02:46;10.07;;;8.68;;
48963;SDS011;34776;48.180;16.420;2023-05-07T09:05:11;11.23;;;9.50;;
48963;SDS011;34776;48.180;16.420;2023-05-07T09:07:36;11.38;;;10.27;;
48963;SDS011;34776;48.180;16.420;2023-05-07T09:10:02;11.35;;;10.25;;
48963;SDS011;34776;48.180;16.420;2023-05-07T09:12:29;13.00;;;9.80;;
48963;SDS011;34776;48.180;16.420;2023-05-07T09:14:54;13.82;;;9.98;;
48963;SDS011;34776;48.180;16.420;2023-05-07T09:17:20;11.20;;;10.10;;
48963;SDS011;34776;48.180;16.420;2023-05-07T09:19:45;12.43;;;10.02;;
48963;SDS011;34776;48.180;16.420;2023-05-07T09:22:11;11.15;;;10.10;;
48963;SDS011;34776;48.180;16.420;2023-05-07T09:24:37;15.45;;;11.38;;
48963;SDS011;34776;48.180;16.420;2023-05-07T09:27:03;18.15;;;12.40;;
48963;SDS011;34776;48.180;16.420;2023-05-07T09:29:29;12.10;;;10.90;;
48963;SDS011;34776;48.180;16.420;2023-05-07T09:32:00;10.18;;;8.35;;
48963;SDS011;34776;48.180;16.420;2023-05-07T09:34:35;15.02;;;10.85;;
48963;SDS011;34776;48.180;16.420;2023-05-07T09:37:02;11.70;;;9.95;;
48963;SDS011;34776;48.180;16.420;2023-05-07T09:39:45;9.63;;;8.30;;
48963;SDS011;34776;48.180;16.420;2023-05-07T09:42:12;12.98;;;10.70;;
48963;SDS011;34776;48.180;16.420;2023-05-07T09:44:39;10.77;;;9.68;;
48963;SDS011;34776;48.180;16.420;2023-05-07T09:47:05;12.13;;;10.75;;
48963;SDS011;34776;48.180;16.420;2023-05-07T09:49:33;9.88;;;8.88;;
48963;SDS011;34776;48.180;16.420;2023-05-07T09:52:01;11.73;;;10.05;;
48963;SDS011;34776;48.180;16.420;2023-05-07T09:54:27;10.15;;;8.25;;
48963;SDS011;34776;48.180;16.420;2023-05-07T09:56:56;9.57;;;8.68;;
48963;SDS011;34776;48.180;16.420;2023-05-07T09:59:22;9.13;;;8.23;;
48963;SDS011;34776;48.180;16.420;2023-05-07T10:01:49;9.20;;;8.15;;
48963;SDS011;34776;48.180;16.420;2023-05-07T10:04:17;8.38;;;7.57;;
48963;SDS011;34776;48.180;16.420;2023-05-07T10:06:43;10.00;;;8.80;;
48963;SDS011;34776;48.180;16.420;2023-05-07T10:09:09;9.15;;;7.72;;
48963;SDS011;34776;48.180;16.420;2023-05-07T10:11:36;9.10;;;8.20;;
48963;SDS011;34776;48.180;16.420;2023-05-07T10:14:02;11.32;;;10.05;;
48963;SDS011;34776;48.180;16.420;2023-05-07T10:16:32;10.55;;;9.45;;
48963;SDS011;34776;48.180;16.420;2023-05-07T10:19:02;10.60;;;9.60;;
48963;SDS011;34776;48.180;16.420;2023-05-07T10:21:28;11.48;;;8.55;;
48963;SDS011;34776;48.180;16.420;2023-05-07T10:23:59;12.50;;;10.82;;
48963;SDS011;34776;48.180;16.420;2023-05-07T10:26:28;12.13;;;9.75;;
48963;SDS011;34776;48.180;16.420;2023-05-07T10:28:58;10.73;;;9.30;;
48963;SDS011;34776;48.180;16.420;2023-05-07T10:34:10;7.63;;;6.68;;
48963;SDS011;34776;48.180;16.420;2023-05-07T10:36:38;11.57;;;9.40;;
48963;SDS011;34776;48.180;16.420;2023-05-07T10:39:04;9.93;;;8.18;;
48963;SDS011;34776;48.180;16.420;2023-05-07T10:41:31;8.77;;;7.75;;
48963;SDS011;34776;48.180;16.420;2023-05-07T10:43:56;9.13;;;7.15;;
48963;SDS011;34776;48.180;16.420;2023-05-07T10:46:22;10.40;;;8.27;;
48963;SDS011;34776;48.180;16.420;2023-05-07T10:51:29;8.95;;;8.02;;
48963;SDS011;34776;48.180;16.420;2023-05-07T10:56:37;9.90;;;8.38;;
48963;SDS011;34776;48.180;16.420;2023-05-07T11:01:53;8.25;;;7.35;;
48963;SDS011;34776;48.180;16.420;2023-05-07T11:04:23;10.18;;;8.63;;
48963;SDS011;34776;48.180;16.420;2023-05-07T11:13:03;9.43;;;7.53;;
48963;SDS011;34776;48.180;16.420;2023-05-07T11:17:30;8.93;;;7.78;;
48963;SDS011;34776;48.180;16.420;2023-05-07T11:19:57;7.90;;;7.10;;
48963;SDS011;34776;48.180;16.420;2023-05-07T11:25:04;9.40;;;7.72;;
48963;SDS011;34776;48.180;16.420;2023-05-07T11:27:32;8.52;;;7.63;;
48963;SDS011;34776;48.180;16.420;2023-05-07T11:29:58;8.20;;;7.40;;
48963;SDS011;34776;48.180;16.420;2023-05-07T11:32:29;7.60;;;6.90;;
48963;SDS011;34776;48.180;16.420;2023-05-07T11:34:57;7.40;;;6.18;;
48963;SDS011;34776;48.180;16.420;2023-05-07T11:37:24;8.23;;;6.68;;
48963;SDS011;34776;48.180;16.420;2023-05-07T11:39:51;7.85;;;7.00;;
48963;SDS011;34776;48.180;16.420;2023-05-07T11:42:29;7.78;;;6.55;;
48963;SDS011;34776;48.180;16.420;2023-05-07T11:44:56;6.88;;;6.20;;
48963;SDS011;34776;48.180;16.420;2023-05-07T11:47:22;7.60;;;6.60;;
48963;SDS011;34776;48.180;16.420;2023-05-07T11:49:49;6.63;;;5.97;;
48963;SDS011;34776;48.180;16.420;2023-05-07T11:52:16;9.25;;;5.72;;
48963;SDS011;34776;48.180;16.420;2023-05-07T11:54:52;7.50;;;6.70;;
48963;SDS011;34776;48.180;16.420;2023-05-07T11:57:23;7.97;;;7.00;;
48963;SDS011;34776;48.180;16.420;2023-05-07T11:59:55;6.95;;;6.25;;
48963;SDS011;34776;48.180;16.420;2023-05-07T12:02:22;7.45;;;6.68;;
48963;SDS011;34776;48.180;16.420;2023-05-07T12:04:49;6.88;;;6.18;;
48963;SDS011;34776;48.180;16.420;2023-05-07T12:07:18;7.15;;;6.30;;
48963;SDS011;34776;48.180;16.420;2023-05-07T12:09:44;8.13;;;5.97;;
48963;SDS011;34776;48.180;16.420;2023-05-07T12:12:10;6.97;;;6.28;;
48963;SDS011;34776;48.180;16.420;2023-05-07T12:14:39;6.70;;;6.00;;
48963;SDS011;34776;48.180;16.420;2023-05-07T12:17:06;6.43;;;5.65;;
48963;SDS011;34776;48.180;16.420;2023-05-07T12:19:33;5.88;;;5.20;;
48963;SDS011;34776;48.180;16.420;2023-05-07T12:22:04;6.88;;;6.10;;
48963;SDS011;34776;48.180;16.420;2023-05-07T12:24:43;6.22;;;5.20;;
48963;SDS011;34776;48.180;16.420;2023-05-07T12:27:09;6.70;;;5.15;;
48963;SDS011;34776;48.180;16.420;2023-05-07T12:29:35;7.57;;;5.07;;
48963;SDS011;34776;48.180;16.420;2023-05-07T12:32:00;6.38;;;5.60;;
48963;SDS011;34776;48.180;16.420;2023-05-07T12:34:26;8.07;;;6.20;;
48963;SDS011;34776;48.180;16.420;2023-05-07T12:36:51;5.95;;;5.35;;
48963;SDS011;34776;48.180;16.420;2023-05-07T12:39:18;6.68;;;5.97;;
48963;SDS011;34776;48.180;16.420;2023-05-07T12:41:56;6.72;;;6.00;;
48963;SDS011;34776;48.180;16.420;2023-05-07T12:44:23;7.97;;;5.53;;
48963;SDS011;34776;48.180;16.420;2023-05-07T12:46:50;8.25;;;6.22;;
48963;SDS011;34776;48.180;16.420;2023-05-07T12:49:16;8.45;;;6.07;;
48963;SDS011;34776;48.180;16.420;2023-05-07T12:51:43;6.78;;;6.07;;
48963;SDS011;34776;48.180;16.420;2023-05-07T12:54:08;6.88;;;6.28;;
48963;SDS011;34776;48.180;16.420;2023-05-07T12:56:36;6.90;;;6.30;;
48963;SDS011;34776;48.180;16.420;2023-05-07T12:59:02;6.63;;;6.03;;
48963;SDS011;34776;48.180;16.420;2023-05-07T13:01:28;6.22;;;5.63;;
48963;SDS011;34776;48.180;16.420;2023-05-07T13:03:55;6.88;;;6.15;;
48963;SDS011;34776;48.180;16.420;2023-05-07T13:06:22;5.68;;;5.10;;
48963;SDS011;34776;48.180;16.420;2023-05-07T13:08:47;6.38;;;5.22;;
48963;SDS011;34776;48.180;16.420;2023-05-07T13:11:13;6.45;;;5.85;;
48963;SDS011;34776;48.180;16.420;2023-05-07T13:13:39;6.88;;;5.90;;
48963;SDS011;34776;48.180;16.420;2023-05-07T13:16:08;6.57;;;4.82;;
48963;SDS011;34776;48.180;16.420;2023-05-07T13:18:35;4.93;;;4.47;;
48963;SDS011;34776;48.180;16.420;2023-05-07T13:21:01;5.28;;;4.78;;
48963;SDS011;34776;48.180;16.420;2023-05-07T13:23:27;5.13;;;4.63;;
48963;SDS011;34776;48.180;16.420;2023-05-07T13:25:53;6.00;;;5.28;;
48963;SDS011;34776;48.180;16.420;2023-05-07T13:28:22;5.55;;;4.95;;
48963;SDS011;34776;48.180;16.420;2023-05-07T13:30:48;6.80;;;6.18;;
48963;SDS011;34776;48.180;16.420;2023-05-07T13:33:16;6.00;;;5.40;;
48963;SDS011;34776;48.180;16.420;2023-05-07T13:35:42;5.07;;;4.45;;
48963;SDS011;34776;48.180;16.420;2023-05-07T13:38:07;6.15;;;4.45;;
48963;SDS011;34776;48.180;16.420;2023-05-07T13:40:33;4.57;;;4.18;;
48963;SDS011;34776;48.180;16.420;2023-05-07T13:42:58;4.93;;;4.50;;
48963;SDS011;34776;48.180;16.420;2023-05-07T13:45:26;5.85;;;5.25;;
48963;SDS011;34776;48.180;16.420;2023-05-07T13:47:54;6.32;;;5.30;;
48963;SDS011;34776;48.180;16.420;2023-05-07T13:50:20;6.70;;;5.50;;
48963;SDS011;34776;48.180;16.420;2023-05-07T13:52:45;5.35;;;4.85;;
48963;SDS011;34776;48.180;16.420;2023-05-07T13:55:20;5.45;;;4.97;;
48963;SDS011;34776;48.180;16.420;2023-05-07T13:57:46;4.97;;;4.47;;
48963;SDS011;34776;48.180;16.420;2023-05-07T14:00:12;8.88;;;7.30;;
48963;SDS011;34776;48.180;16.420;2023-05-07T14:02:38;43.08;;;33.08;;
48963;SDS011;34776;48.180;16.420;2023-05-07T14:05:04;12.27;;;9.98;;
48963;SDS011;34776;48.180;16.420;2023-05-07T14:07:29;6.45;;;5.85;;
48963;SDS011;34776;48.180;16.420;2023-05-07T14:09:55;6.47;;;4.80;;
48963;SDS011;34776;48.180;16.420;2023-05-07T14:12:21;4.78;;;4.18;;
48963;SDS011;34776;48.180;16.420;2023-05-07T14:14:46;6.93;;;4.25;;
48963;SDS011;34776;48.180;16.420;2023-05-07T14:17:18;4.82;;;4.05;;
48963;SDS011;34776;48.180;16.420;2023-05-07T14:19:44;4.43;;;4.03;;
48963;SDS011;34776;48.180;16.420;2023-05-07T14:22:09;7.43;;;6.22;;
48963;SDS011;34776;48.180;16.420;2023-05-07T14:24:35;5.30;;;4.80;;
48963;SDS011;34776;48.180;16.420;2023-05-07T14:27:00;4.90;;;4.40;;
48963;SDS011;34776;48.180;16.420;2023-05-07T14:29:26;4.13;;;3.50;;
48963;SDS011;34776;48.180;16.420;2023-05-07T14:31:51;4.82;;;3.90;;
48963;SDS011;34776;48.180;16.420;2023-05-07T14:34:16;5.00;;;4.43;;
48963;SDS011;34776;48.180;16.420;2023-05-07T14:36:41;4.30;;;3.90;;
48963;SDS011;34776;48.180;16.420;2023-05-07T14:39:08;4.47;;;3.95;;
48963;SDS011;34776;48.180;16.420;2023-05-07T14:41:34;5.40;;;4.32;;